Seattle, Washington
Traffic Map
Current Weather Conditions
Seattle, Washington
Broken Clouds
Broken Clouds
73°
Feels Like: 73°
Wind Chill: 73° Ceiling: 12000
Heat Index: 73° Visibility: 10mi
Dew Point: 53° Wind: 5mph
Humidity: 49% Direction: 330° (NNW)
Pressure: 30.16in Gusts: 0mph
Raw Report DataKBFI 271753Z 33004KT 10SM BKN120 23/12 A3016 RMK AO2 SLP211 T02280117 10233 20167 57002
Traffic Incident Summary
Active as of:
Severity:
Category:
InformationThere was an issue retrieving the traffic information for this location. Please try a different location or try again shortly.
Advertisements
Track Severe Weather on mobile